Time;durP1;ratioP1;P1;durP2;ratioP2;P2;SDS_P1;SDS_P2;PMS_P1;PMS_P2;Temp;Humidity;BMP_temperature;BMP_pressure;BME280_temperature;BME280_humidity;BME280_pressure;Samples;Min_cycle;Max_cycle;Signal;HPM_P1;HPM_P2
2022/06/21 00:01:52;;;;;;;9.90;4.67;;;;;;;;;;5003807;28;20364;-76
2022/06/21 00:04:19;;;;;;;8.00;4.83;;;;;;;;;;5006518;28;20211;-76
2022/06/21 00:06:46;;;;;;;12.97;5.20;;;;;;;;;;5007306;28;20301;-76
2022/06/21 00:09:14;;;;;;;9.17;4.70;;;;;;;;;;5008197;28;20698;-75
2022/06/21 00:11:43;;;;;;;10.20;4.40;;;;;;;;;;5004904;28;20224;-76
2022/06/21 00:14:10;;;;;;;8.87;4.80;;;;;;;;;;5006177;28;20204;-76
2022/06/21 00:16:38;;;;;;;7.03;4.57;;;;;;;;;;5008417;28;20208;-76
2022/06/21 00:19:07;;;;;;;11.50;5.10;;;;;;;;;;5007446;28;20200;-76
2022/06/21 00:21:35;;;;;;;10.70;4.70;;;;;;;;;;5005011;28;20315;-75
2022/06/21 00:24:03;;;;;;;10.77;4.90;;;;;;;;;;5010721;28;20689;-76
2022/06/21 00:26:31;;;;;;;9.30;4.70;;;;;;;;;;5006845;28;20691;-76
2022/06/21 00:29:00;;;;;;;16.07;5.00;;;;;;;;;;5007360;28;20302;-76
2022/06/21 00:31:29;;;;;;;8.57;4.27;;;;;;;;;;5007164;28;20581;-76
2022/06/21 00:33:56;;;;;;;8.03;4.73;;;;;;;;;;5010433;28;20196;-76
2022/06/21 00:36:25;;;;;;;8.67;4.47;;;;;;;;;;5012793;28;20205;-76
2022/06/21 00:38:53;;;;;;;6.33;4.37;;;;;;;;;;5011017;28;20225;-76
2022/06/21 00:41:21;;;;;;;9.43;4.43;;;;;;;;;;5009912;28;20216;-76
2022/06/21 00:43:52;;;;;;;12.17;4.50;;;;;;;;;;5011718;28;20296;-76
2022/06/21 00:46:31;;;;;;;10.57;5.10;;;;;;;;;;5007782;28;20197;-77
2022/06/21 00:49:00;;;;;;;10.90;4.83;;;;;;;;;;5010599;28;20220;-76
2022/06/21 00:51:28;;;;;;;9.27;4.70;;;;;;;;;;5006354;28;20654;-76
2022/06/21 00:53:57;;;;;;;14.83;4.47;;;;;;;;;;5008977;28;20212;-76
2022/06/21 00:56:26;;;;;;;9.73;4.67;;;;;;;;;;5008463;28;20330;-76
2022/06/21 00:58:54;;;;;;;8.57;4.40;;;;;;;;;;5008085;28;20200;-75
2022/06/21 01:01:23;;;;;;;7.87;4.60;;;;;;;;;;5007451;28;20231;-76
2022/06/21 01:03:53;;;;;;;8.07;4.47;;;;;;;;;;5008161;28;20231;-77
2022/06/21 01:06:23;;;;;;;10.03;4.73;;;;;;;;;;5007908;28;20649;-76
2022/06/21 01:08:52;;;;;;;8.97;4.83;;;;;;;;;;5008160;28;20212;-77
2022/06/21 01:11:22;;;;;;;8.57;4.60;;;;;;;;;;5009296;28;20238;-76
2022/06/21 01:13:51;;;;;;;7.87;4.97;;;;;;;;;;5009444;28;20313;-76
2022/06/21 01:16:19;;;;;;;8.73;5.20;;;;;;;;;;5007824;28;20210;-76
2022/06/21 01:18:47;;;;;;;8.67;4.90;;;;;;;;;;5011105;28;20212;-76
2022/06/21 01:21:17;;;;;;;7.70;5.07;;;;;;;;;;5010819;28;20322;-76
2022/06/21 01:23:49;;;;;;;7.80;4.60;;;;;;;;;;5008272;28;20535;-77
2022/06/21 01:26:40;;;;;;;8.13;5.30;;;;;;;;;;5008797;28;20200;-77
2022/06/21 01:29:08;;;;;;;11.70;5.20;;;;;;;;;;5009561;28;20229;-76
2022/06/21 01:31:35;;;;;;;7.30;4.73;;;;;;;;;;5008228;28;20725;-76
2022/06/21 01:34:03;;;;;;;8.63;5.30;;;;;;;;;;5010945;28;20559;-76
2022/06/21 01:36:31;;;;;;;15.20;4.77;;;;;;;;;;5011673;28;20679;-76
2022/06/21 01:39:01;;;;;;;8.83;4.90;;;;;;;;;;5009459;28;20204;-77
2022/06/21 01:41:30;;;;;;;8.37;4.73;;;;;;;;;;5008710;28;20253;-76
2022/06/21 01:44:00;;;;;;;9.60;4.93;;;;;;;;;;5007791;28;20645;-76
2022/06/21 01:46:29;;;;;;;9.27;4.90;;;;;;;;;;5008882;28;20197;-77
2022/06/21 01:49:00;;;;;;;10.17;4.70;;;;;;;;;;5007229;28;20228;-77
2022/06/21 01:51:32;;;;;;;15.20;5.13;;;;;;;;;;5011782;28;20271;-77
2022/06/21 01:54:01;;;;;;;15.30;5.10;;;;;;;;;;5008383;28;20639;-75
2022/06/21 01:56:30;;;;;;;6.73;4.47;;;;;;;;;;5006824;28;20207;-76
2022/06/21 01:58:58;;;;;;;9.00;5.33;;;;;;;;;;5008002;28;20298;-76
2022/06/21 02:01:29;;;;;;;8.57;4.67;;;;;;;;;;5006057;28;20227;-76
2022/06/21 02:03:57;;;;;;;9.20;5.17;;;;;;;;;;5009580;28;20212;-77
2022/06/21 02:06:27;;;;;;;9.00;5.30;;;;;;;;;;5011226;28;20205;-76
2022/06/21 02:08:56;;;;;;;10.37;4.83;;;;;;;;;;5007868;28;20228;-76
2022/06/21 02:11:26;;;;;;;9.80;4.77;;;;;;;;;;5007835;28;20223;-76
2022/06/21 02:16:37;;;;;;;12.13;4.63;;;;;;;;;;5009859;28;20264;-76
2022/06/21 02:19:04;;;;;;;7.80;5.00;;;;;;;;;;5010796;28;20209;-76
2022/06/21 02:21:34;;;;;;;10.73;4.73;;;;;;;;;;5010888;28;20711;-76
2022/06/21 02:24:02;;;;;;;10.17;5.03;;;;;;;;;;5003204;28;20208;-77
2022/06/21 02:26:30;;;;;;;10.23;4.87;;;;;;;;;;5011630;28;20200;-76
2022/06/21 02:28:58;;;;;;;7.23;4.67;;;;;;;;;;5007951;28;20256;-77
2022/06/21 02:31:26;;;;;;;11.20;4.77;;;;;;;;;;5007894;28;20225;-76
2022/06/21 02:33:56;;;;;;;7.53;5.30;;;;;;;;;;5008139;28;20209;-76
2022/06/21 02:36:26;;;;;;;7.00;4.93;;;;;;;;;;5007121;28;20220;-77
2022/06/21 02:38:55;;;;;;;9.00;5.00;;;;;;;;;;5008872;28;20348;-77
2022/06/21 02:41:26;;;;;;;7.33;4.90;;;;;;;;;;5010293;28;20228;-77
2022/06/21 02:43:55;;;;;;;8.20;5.00;;;;;;;;;;5011297;28;20208;-77
2022/06/21 02:46:26;;;;;;;7.90;4.80;;;;;;;;;;5006671;28;20263;-77
2022/06/21 02:48:54;;;;;;;6.07;4.47;;;;;;;;;;5011087;28;20291;-78
2022/06/21 02:51:26;;;;;;;9.03;4.33;;;;;;;;;;5010482;28;20231;-77
2022/06/21 02:53:55;;;;;;;7.40;4.43;;;;;;;;;;5004487;28;20210;-77
2022/06/21 02:56:24;;;;;;;6.17;4.43;;;;;;;;;;5008464;28;20219;-78
2022/06/21 02:58:53;;;;;;;9.23;4.50;;;;;;;;;;5005679;28;20210;-77
2022/06/21 03:01:21;;;;;;;10.23;4.40;;;;;;;;;;5002489;28;20225;-78
2022/06/21 03:03:49;;;;;;;9.70;4.63;;;;;;;;;;5009435;28;20209;-77
2022/06/21 03:06:18;;;;;;;11.30;5.50;;;;;;;;;;5010722;28;20213;-77
2022/06/21 03:08:50;;;;;;;9.77;4.90;;;;;;;;;;5011086;28;20243;-77
2022/06/21 03:11:17;;;;;;;9.30;4.80;;;;;;;;;;5012440;28;20312;-77
2022/06/21 03:13:45;;;;;;;7.13;4.03;;;;;;;;;;5008046;28;20725;-77
2022/06/21 03:16:13;;;;;;;8.90;4.37;;;;;;;;;;5014047;28;20758;-77
2022/06/21 03:18:42;;;;;;;6.67;4.20;;;;;;;;;;5014087;28;20209;-77
2022/06/21 03:21:12;;;;;;;9.33;4.73;;;;;;;;;;5013209;28;20310;-78
2022/06/21 03:23:39;;;;;;;9.47;4.50;;;;;;;;;;5014886;28;20293;-77
2022/06/21 03:26:08;;;;;;;7.70;4.53;;;;;;;;;;5011525;28;20627;-77
2022/06/21 03:28:36;;;;;;;11.43;5.07;;;;;;;;;;5012919;28;20248;-77
2022/06/21 03:31:07;;;;;;;8.33;4.37;;;;;;;;;;5009037;28;20301;-78
2022/06/21 03:33:35;;;;;;;9.27;4.63;;;;;;;;;;5014106;28;20663;-77
2022/06/21 03:36:04;;;;;;;9.47;4.47;;;;;;;;;;5009582;28;20204;-77
2022/06/21 03:38:31;;;;;;;8.07;4.57;;;;;;;;;;5011912;28;20201;-78
2022/06/21 03:43:47;;;;;;;10.67;4.57;;;;;;;;;;5015503;28;20210;-77
2022/06/21 03:46:19;;;;;;;9.60;4.33;;;;;;;;;;5012408;28;20208;-77
2022/06/21 03:48:50;;;;;;;9.43;4.13;;;;;;;;;;5012280;28;20213;-77
2022/06/21 03:51:19;;;;;;;6.43;4.47;;;;;;;;;;5006412;28;20831;-78
2022/06/21 03:53:49;;;;;;;5.43;3.73;;;;;;;;;;5012585;28;20227;-77
2022/06/21 03:56:20;;;;;;;6.67;3.33;;;;;;;;;;5010221;28;20216;-77
2022/06/21 03:58:51;;;;;;;8.10;3.30;;;;;;;;;;5012786;28;20216;-76
2022/06/21 04:01:20;;;;;;;7.50;3.30;;;;;;;;;;5010202;28;20311;-77
2022/06/21 04:03:51;;;;;;;5.33;3.13;;;;;;;;;;5010289;28;20228;-77
2022/06/21 04:06:23;;;;;;;4.50;2.73;;;;;;;;;;5012864;28;20577;-77
2022/06/21 04:08:53;;;;;;;4.33;3.17;;;;;;;;;;5011214;28;20668;-78
2022/06/21 04:11:23;;;;;;;4.70;2.87;;;;;;;;;;5012638;28;20228;-78
2022/06/21 04:13:54;;;;;;;6.37;2.60;;;;;;;;;;5010688;28;20706;-78
2022/06/21 04:16:25;;;;;;;3.83;2.67;;;;;;;;;;5009940;28;20296;-78
2022/06/21 04:18:55;;;;;;;6.13;2.47;;;;;;;;;;5005212;28;20219;-78
2022/06/21 04:21:26;;;;;;;3.53;2.33;;;;;;;;;;5007843;28;20224;-78
2022/06/21 04:23:56;;;;;;;5.07;2.23;;;;;;;;;;5011178;28;20235;-78
2022/06/21 04:26:29;;;;;;;9.17;2.50;;;;;;;;;;5009451;28;20203;-78
2022/06/21 04:29:07;;;;;;;6.00;2.70;;;;;;;;;;5013929;28;20218;-77
2022/06/21 04:31:36;;;;;;;6.43;2.43;;;;;;;;;;5015300;28;20374;-78
2022/06/21 04:34:07;;;;;;;6.73;2.70;;;;;;;;;;5014478;28;20211;-78
2022/06/21 04:36:38;;;;;;;3.33;2.40;;;;;;;;;;5019059;28;20209;-78
2022/06/21 04:39:08;;;;;;;4.60;2.30;;;;;;;;;;5015001;28;20288;-78
2022/06/21 04:41:40;;;;;;;11.30;2.40;;;;;;;;;;5012606;28;20224;-77
2022/06/21 04:44:11;;;;;;;5.67;2.83;;;;;;;;;;5010853;28;20204;-77
2022/06/21 04:46:40;;;;;;;5.33;2.50;;;;;;;;;;5010113;28;20204;-78
2022/06/21 04:49:10;;;;;;;5.80;2.43;;;;;;;;;;5008967;28;20204;-78
2022/06/21 04:51:39;;;;;;;4.43;2.13;;;;;;;;;;5008038;28;20297;-77
2022/06/21 04:54:07;;;;;;;9.47;2.27;;;;;;;;;;5008118;28;20280;-78
2022/06/21 04:56:39;;;;;;;8.27;2.27;;;;;;;;;;5008645;28;20560;-77
2022/06/21 04:59:11;;;;;;;7.30;2.43;;;;;;;;;;5004485;28;20278;-77
2022/06/21 05:01:39;;;;;;;4.43;2.40;;;;;;;;;;5005266;28;20221;-75
2022/06/21 05:04:09;;;;;;;5.67;2.70;;;;;;;;;;5007284;28;20204;-76
2022/06/21 05:06:37;;;;;;;6.83;2.47;;;;;;;;;;5001403;28;20282;-75
2022/06/21 05:09:04;;;;;;;7.40;2.77;;;;;;;;;;5008610;28;20214;-76
2022/06/21 05:11:31;;;;;;;2.63;2.10;;;;;;;;;;5010846;28;20237;-76
2022/06/21 05:14:00;;;;;;;3.00;2.10;;;;;;;;;;5008683;28;20231;-76
2022/06/21 05:16:30;;;;;;;4.77;2.40;;;;;;;;;;5007358;28;20196;-76
2022/06/21 05:19:00;;;;;;;3.47;2.27;;;;;;;;;;5004066;28;20216;-78
2022/06/21 05:21:32;;;;;;;4.93;2.27;;;;;;;;;;5009445;28;20255;-76
2022/06/21 05:24:00;;;;;;;5.60;2.60;;;;;;;;;;5008341;28;20208;-76
2022/06/21 05:26:31;;;;;;;3.20;2.10;;;;;;;;;;5003820;28;20207;-75
2022/06/21 05:29:00;;;;;;;6.67;2.37;;;;;;;;;;5006182;28;20769;-74
2022/06/21 05:31:30;;;;;;;3.97;2.37;;;;;;;;;;5008273;28;20781;-76
2022/06/21 05:34:01;;;;;;;7.30;2.70;;;;;;;;;;5006111;28;20209;-75
2022/06/21 05:36:30;;;;;;;5.13;2.40;;;;;;;;;;5007063;28;20208;-75
2022/06/21 05:38:59;;;;;;;6.93;2.70;;;;;;;;;;5003745;28;20209;-75
2022/06/21 05:41:33;;;;;;;4.53;2.50;;;;;;;;;;5009263;28;20226;-75
2022/06/21 05:44:02;;;;;;;6.23;2.67;;;;;;;;;;5009990;28;20247;-76
2022/06/21 05:46:30;;;;;;;7.00;2.13;;;;;;;;;;5006719;28;20200;-77
2022/06/21 05:49:00;;;;;;;5.43;2.50;;;;;;;;;;5010600;28;20204;-77
2022/06/21 05:51:28;;;;;;;9.70;2.63;;;;;;;;;;5009192;28;20234;-77
2022/06/21 05:53:57;;;;;;;5.90;2.70;;;;;;;;;;5012426;28;20284;-77
2022/06/21 05:56:25;;;;;;;5.50;2.37;;;;;;;;;;5006231;28;20213;-77
2022/06/21 05:58:54;;;;;;;5.67;2.47;;;;;;;;;;5004956;28;20676;-76
2022/06/21 06:01:24;;;;;;;7.73;2.70;;;;;;;;;;5005566;28;20321;-76
2022/06/21 06:03:54;;;;;;;6.20;2.70;;;;;;;;;;5011171;28;20210;-75
2022/06/21 06:06:23;;;;;;;4.57;2.13;;;;;;;;;;5008971;28;20258;-77
2022/06/21 06:08:53;;;;;;;5.60;2.47;;;;;;;;;;5008581;28;20671;-76
2022/06/21 06:11:22;;;;;;;4.77;2.57;;;;;;;;;;5006681;28;20319;-77
2022/06/21 06:13:51;;;;;;;5.70;2.33;;;;;;;;;;5009645;28;20222;-77
2022/06/21 06:16:32;;;;;;;9.03;2.50;;;;;;;;;;5007347;28;20204;-76
2022/06/21 06:19:02;;;;;;;6.13;2.37;;;;;;;;;;5007548;28;20211;-77
2022/06/21 06:21:35;;;;;;;4.43;2.30;;;;;;;;;;5006667;28;20217;-77
2022/06/21 06:24:04;;;;;;;5.63;2.63;;;;;;;;;;5010581;28;20211;-77
2022/06/21 06:26:33;;;;;;;5.73;2.27;;;;;;;;;;5004484;28;20912;-77
2022/06/21 06:29:03;;;;;;;8.50;2.23;;;;;;;;;;5001873;28;20653;-77
2022/06/21 06:31:32;;;;;;;3.93;2.53;;;;;;;;;;5006565;28;20227;-76
2022/06/21 06:34:00;;;;;;;8.47;2.50;;;;;;;;;;5002287;28;20205;-76
2022/06/21 06:36:29;;;;;;;6.90;2.20;;;;;;;;;;4999848;28;20213;-77
2022/06/21 06:38:59;;;;;;;6.53;2.07;;;;;;;;;;4998957;28;20210;-76
2022/06/21 06:41:31;;;;;;;7.40;2.07;;;;;;;;;;5004949;28;20216;-76
2022/06/21 06:43:59;;;;;;;3.97;2.33;;;;;;;;;;5004568;28;20200;-76
2022/06/21 06:46:30;;;;;;;5.90;2.10;;;;;;;;;;5004221;28;20208;-77
2022/06/21 06:49:00;;;;;;;3.37;1.90;;;;;;;;;;5007625;28;20223;-77
2022/06/21 06:51:44;;;;;;;3.57;1.80;;;;;;;;;;5007366;28;20311;-76
2022/06/21 06:54:16;;;;;;;3.97;2.17;;;;;;;;;;5008297;28;20204;-77
2022/06/21 06:56:49;;;;;;;4.07;2.10;;;;;;;;;;5007420;28;20228;-76
2022/06/21 06:59:17;;;;;;;4.43;2.17;;;;;;;;;;5007240;28;20260;-77
2022/06/21 07:01:47;;;;;;;7.47;2.17;;;;;;;;;;5006641;28;20290;-76
2022/06/21 07:04:16;;;;;;;9.27;2.20;;;;;;;;;;5009113;28;20205;-77
2022/06/21 07:06:45;;;;;;;4.93;1.60;;;;;;;;;;5009377;28;20230;-76
2022/06/21 07:09:17;;;;;;;6.17;1.80;;;;;;;;;;5005444;28;20208;-76
2022/06/21 07:11:52;;;;;;;3.67;1.70;;;;;;;;;;5008242;28;20233;-76
2022/06/21 07:14:21;;;;;;;7.17;1.83;;;;;;;;;;5010742;28;20675;-76
2022/06/21 07:16:51;;;;;;;3.90;1.73;;;;;;;;;;5008567;28;20215;-77
2022/06/21 07:19:18;;;;;;;5.93;1.60;;;;;;;;;;5005954;28;20210;-76
2022/06/21 07:21:45;;;;;;;5.10;1.80;;;;;;;;;;5012439;28;20226;-77
2022/06/21 07:24:15;;;;;;;5.60;1.63;;;;;;;;;;5004702;28;20262;-76
2022/06/21 07:26:47;;;;;;;3.90;1.53;;;;;;;;;;5009291;28;20211;-76
2022/06/21 07:29:16;;;;;;;2.90;1.30;;;;;;;;;;5009132;28;20222;-77
2022/06/21 07:31:46;;;;;;;4.03;1.80;;;;;;;;;;5004942;28;20700;-76
2022/06/21 07:34:15;;;;;;;4.73;1.97;;;;;;;;;;5009924;28;20629;-77
2022/06/21 07:36:44;;;;;;;6.37;1.60;;;;;;;;;;5013295;28;20291;-77
2022/06/21 07:39:15;;;;;;;4.83;1.43;;;;;;;;;;5005236;28;20291;-76
2022/06/21 07:41:43;;;;;;;5.57;1.90;;;;;;;;;;5008325;28;20719;-75
2022/06/21 07:44:14;;;;;;;5.43;1.70;;;;;;;;;;5006795;28;20211;-76
2022/06/21 07:46:44;;;;;;;4.60;1.40;;;;;;;;;;5005229;28;20215;-77
2022/06/21 07:49:14;;;;;;;4.77;1.43;;;;;;;;;;5008791;28;20572;-76
2022/06/21 07:51:44;;;;;;;6.60;1.73;;;;;;;;;;5006393;28;20236;-76
2022/06/21 07:54:15;;;;;;;5.30;1.70;;;;;;;;;;5006464;28;20211;-76
2022/06/21 07:56:45;;;;;;;3.73;1.70;;;;;;;;;;5009771;28;20218;-76
2022/06/21 07:59:17;;;;;;;3.43;1.53;;;;;;;;;;5009026;28;20214;-76
2022/06/21 08:07:21;;;;;;;4.27;1.50;;;;;;;;;;5010442;28;20262;-76
2022/06/21 08:09:51;;;;;;;6.70;2.10;;;;;;;;;;5007811;28;20220;-76
2022/06/21 08:12:20;;;;;;;8.00;1.90;;;;;;;;;;5005475;28;20221;-77
2022/06/21 08:14:47;;;;;;;5.23;1.97;;;;;;;;;;5009193;28;20314;-76
2022/06/21 08:17:19;;;;;;;6.13;1.80;;;;;;;;;;5007547;28;20291;-76
2022/06/21 08:19:49;;;;;;;4.27;1.60;;;;;;;;;;5008320;28;20666;-77
2022/06/21 08:22:19;;;;;;;7.83;1.90;;;;;;;;;;5009004;28;20227;-75
2022/06/21 08:24:52;;;;;;;4.00;1.60;;;;;;;;;;5005829;28;20778;-76
2022/06/21 08:27:25;;;;;;;6.93;1.70;;;;;;;;;;5005699;28;20308;-76
2022/06/21 08:29:55;;;;;;;3.83;1.67;;;;;;;;;;5006946;28;20219;-75
2022/06/21 08:32:26;;;;;;;7.70;1.60;;;;;;;;;;5004261;28;20229;-76
2022/06/21 08:34:57;;;;;;;6.27;1.60;;;;;;;;;;5004157;28;20211;-76
2022/06/21 08:37:28;;;;;;;5.30;1.80;;;;;;;;;;5007822;28;20239;-76
2022/06/21 08:39:57;;;;;;;8.87;2.20;;;;;;;;;;5002148;28;20300;-76
2022/06/21 08:42:42;;;;;;;7.53;1.97;;;;;;;;;;5006206;28;20782;-76
2022/06/21 08:45:43;;;;;;;3.97;1.80;;;;;;;;;;5011573;28;20207;-76
2022/06/21 08:48:40;;;;;;;4.50;1.80;;;;;;;;;;5008053;28;20203;-76
2022/06/21 08:51:30;;;;;;;5.40;1.60;;;;;;;;;;5003616;28;20323;-76
2022/06/21 08:54:04;;;;;;;3.50;1.73;;;;;;;;;;5005170;28;20219;-76
2022/06/21 08:56:34;;;;;;;6.13;1.93;;;;;;;;;;5007589;28;20213;-76
2022/06/21 08:59:07;;;;;;;4.97;1.80;;;;;;;;;;5015698;28;20656;-75
2022/06/21 09:01:41;;;;;;;5.07;2.00;;;;;;;;;;5007249;28;20248;-75
2022/06/21 09:04:19;;;;;;;6.20;1.90;;;;;;;;;;5008765;28;20208;-75
2022/06/21 09:06:53;;;;;;;7.53;1.93;;;;;;;;;;5005831;28;20695;-75
2022/06/21 09:09:32;;;;;;;5.20;2.20;;;;;;;;;;5010263;28;20203;-75
2022/06/21 09:12:07;;;;;;;6.17;1.93;;;;;;;;;;5005636;28;20247;-75
2022/06/21 09:14:56;;;;;;;8.27;2.00;;;;;;;;;;5008633;28;20581;-76
2022/06/21 09:17:27;;;;;;;6.43;1.50;;;;;;;;;;5002980;28;20211;-75
2022/06/21 09:20:04;;;;;;;6.60;2.13;;;;;;;;;;5010710;28;20200;-75
2022/06/21 09:22:33;;;;;;;9.17;2.10;;;;;;;;;;5006534;28;20226;-75
2022/06/21 09:25:06;;;;;;;4.60;1.87;;;;;;;;;;5009258;28;20215;-75
2022/06/21 09:27:35;;;;;;;6.20;1.70;;;;;;;;;;5005821;28;20582;-75
2022/06/21 09:30:06;;;;;;;5.73;2.00;;;;;;;;;;5011294;28;20219;-75
2022/06/21 09:32:39;;;;;;;5.57;2.07;;;;;;;;;;5012634;28;20327;-75
2022/06/21 09:35:18;;;;;;;3.37;1.40;;;;;;;;;;5010444;28;20288;-75
2022/06/21 09:37:56;;;;;;;4.90;1.90;;;;;;;;;;5006263;28;20207;-75
2022/06/21 09:40:26;;;;;;;4.90;1.53;;;;;;;;;;5008919;28;20243;-75
2022/06/21 09:42:56;;;;;;;3.37;1.70;;;;;;;;;;5006215;28;20209;-75
2022/06/21 09:45:28;;;;;;;3.37;1.63;;;;;;;;;;5006256;28;20200;-75
2022/06/21 09:47:59;;;;;;;4.13;1.73;;;;;;;;;;5010482;28;20207;-75
2022/06/21 09:50:28;;;;;;;3.30;1.50;;;;;;;;;;5007711;28;20560;-75
2022/06/21 09:53:00;;;;;;;3.77;1.70;;;;;;;;;;5009304;28;20323;-75
2022/06/21 09:55:32;;;;;;;5.93;1.80;;;;;;;;;;5010718;28;20216;-75
2022/06/21 09:58:03;;;;;;;2.90;1.43;;;;;;;;;;5009496;28;20554;-75
2022/06/21 10:00:37;;;;;;;3.13;1.90;;;;;;;;;;5009415;28;20215;-75
2022/06/21 10:03:18;;;;;;;8.37;2.00;;;;;;;;;;5010486;28;20284;-74
2022/06/21 10:05:49;;;;;;;7.97;2.63;;;;;;;;;;5006476;28;20211;-75
2022/06/21 10:08:20;;;;;;;3.87;2.13;;;;;;;;;;5008021;28;20232;-75
2022/06/21 10:10:55;;;;;;;7.63;1.70;;;;;;;;;;5009019;28;20238;-75
2022/06/21 10:13:30;;;;;;;6.57;2.10;;;;;;;;;;5008845;28;20299;-75
2022/06/21 10:16:02;;;;;;;5.03;1.60;;;;;;;;;;5007649;28;20212;-75
2022/06/21 10:18:42;;;;;;;7.00;1.57;;;;;;;;;;5007456;28;20748;-75
2022/06/21 10:21:21;;;;;;;7.97;1.60;;;;;;;;;;5008636;28;20434;-76
2022/06/21 10:24:07;;;;;;;5.73;1.60;;;;;;;;;;5010711;28;20894;-75
2022/06/21 10:26:40;;;;;;;5.77;1.60;;;;;;;;;;5001537;28;20215;-75
2022/06/21 10:29:16;;;;;;;4.03;1.77;;;;;;;;;;5003729;28;20226;-75
2022/06/21 10:31:52;;;;;;;7.57;2.03;;;;;;;;;;5008032;28;20227;-75
2022/06/21 10:34:31;;;;;;;8.37;1.87;;;;;;;;;;5010220;28;20208;-75
2022/06/21 10:37:12;;;;;;;3.83;1.60;;;;;;;;;;5004919;28;20586;-75
2022/06/21 10:39:57;;;;;;;5.50;1.50;;;;;;;;;;5007823;28;20675;-75
2022/06/21 10:42:48;;;;;;;7.30;1.53;;;;;;;;;;5005192;28;20707;-75
2022/06/21 10:45:22;;;;;;;6.43;1.70;;;;;;;;;;5007014;28;20207;-76
2022/06/21 10:47:58;;;;;;;2.83;1.30;;;;;;;;;;5005880;28;20211;-75
2022/06/21 10:50:32;;;;;;;5.80;1.70;;;;;;;;;;5008549;28;20200;-75
2022/06/21 10:53:10;;;;;;;4.50;1.67;;;;;;;;;;5010416;28;20350;-75
2022/06/21 10:55:44;;;;;;;8.20;1.87;;;;;;;;;;5009198;28;20200;-75
2022/06/21 10:58:15;;;;;;;7.30;1.83;;;;;;;;;;4998712;28;20279;-75
2022/06/21 11:03:35;;;;;;;3.57;1.57;;;;;;;;;;5004560;28;20598;-75
2022/06/21 11:06:12;;;;;;;6.00;2.00;;;;;;;;;;5009517;28;20498;-76
2022/06/21 11:08:46;;;;;;;10.20;1.83;;;;;;;;;;5008369;28;20203;-75
2022/06/21 11:11:15;;;;;;;5.93;1.87;;;;;;;;;;5007442;28;20216;-75
2022/06/21 11:13:47;;;;;;;5.60;1.73;;;;;;;;;;5007693;28;20595;-76
2022/06/21 11:16:16;;;;;;;4.00;1.70;;;;;;;;;;5008079;28;20208;-75
2022/06/21 11:18:50;;;;;;;5.37;1.77;;;;;;;;;;5007724;28;20211;-75
2022/06/21 11:21:31;;;;;;;9.93;1.47;;;;;;;;;;5002823;28;20228;-76
2022/06/21 11:24:06;;;;;;;6.20;1.83;;;;;;;;;;5003103;28;20212;-75
2022/06/21 11:26:38;;;;;;;3.90;1.80;;;;;;;;;;5008527;28;20211;-75
2022/06/21 11:29:09;;;;;;;7.90;1.83;;;;;;;;;;5010225;28;20304;-76
2022/06/21 11:31:40;;;;;;;7.37;1.90;;;;;;;;;;5007130;28;20274;-75
2022/06/21 11:34:10;;;;;;;5.43;2.17;;;;;;;;;;5003235;28;20212;-76
2022/06/21 11:36:43;;;;;;;3.93;2.10;;;;;;;;;;5009070;28;20709;-77
2022/06/21 11:39:22;;;;;;;3.67;1.87;;;;;;;;;;5011915;28;20290;-76
2022/06/21 11:42:05;;;;;;;6.57;1.80;;;;;;;;;;5006099;28;20223;-75
2022/06/21 11:44:43;;;;;;;6.67;1.80;;;;;;;;;;5009795;28;20223;-74
2022/06/21 11:47:12;;;;;;;7.07;2.37;;;;;;;;;;5007832;28;20209;-74
2022/06/21 11:49:47;;;;;;;9.07;1.90;;;;;;;;;;5008888;28;20676;-74
2022/06/21 11:52:32;;;;;;;3.83;2.10;;;;;;;;;;5007963;28;20243;-75
2022/06/21 11:55:06;;;;;;;4.27;1.60;;;;;;;;;;5010852;28;20203;-74
2022/06/21 11:57:36;;;;;;;5.57;2.03;;;;;;;;;;5008489;28;20213;-75
2022/06/21 12:00:07;;;;;;;3.53;1.80;;;;;;;;;;5011721;28;20218;-75
2022/06/21 12:02:40;;;;;;;6.17;2.00;;;;;;;;;;5004494;28;20781;-75
2022/06/21 12:05:19;;;;;;;5.13;2.30;;;;;;;;;;5006138;28;20271;-74
2022/06/21 12:07:51;;;;;;;4.93;2.20;;;;;;;;;;5007158;28;20201;-74
2022/06/21 12:10:21;;;;;;;4.30;2.23;;;;;;;;;;5010992;28;20691;-74
2022/06/21 12:12:52;;;;;;;6.53;2.40;;;;;;;;;;5006763;28;20223;-74
2022/06/21 12:15:40;;;;;;;4.47;2.00;;;;;;;;;;5009844;28;20291;-75
2022/06/21 12:18:10;;;;;;;8.47;2.27;;;;;;;;;;5007807;28;20215;-74
2022/06/21 12:20:42;;;;;;;3.37;1.70;;;;;;;;;;5011198;28;20693;-77
2022/06/21 12:23:11;;;;;;;8.57;2.07;;;;;;;;;;5007204;28;20292;-74
2022/06/21 12:25:40;;;;;;;6.70;2.17;;;;;;;;;;5004748;28;20231;-75
2022/06/21 12:28:10;;;;;;;5.23;2.00;;;;;;;;;;5012679;28;20220;-74
2022/06/21 12:30:37;;;;;;;4.57;2.40;;;;;;;;;;5003121;28;20217;-74
2022/06/21 12:33:06;;;;;;;4.57;1.97;;;;;;;;;;5002317;28;20216;-74
2022/06/21 12:35:43;;;;;;;4.20;1.80;;;;;;;;;;5004729;28;20237;-74
2022/06/21 12:38:11;;;;;;;6.00;1.97;;;;;;;;;;5003303;28;20205;-74
2022/06/21 12:40:41;;;;;;;8.93;2.30;;;;;;;;;;5007554;28;20201;-75
2022/06/21 12:43:19;;;;;;;4.07;1.70;;;;;;;;;;5003143;28;20197;-75
2022/06/21 12:45:51;;;;;;;6.90;2.27;;;;;;;;;;5004519;28;20205;-75
2022/06/21 12:48:31;;;;;;;5.10;1.83;;;;;;;;;;4997386;28;20200;-74
2022/06/21 12:51:04;;;;;;;5.17;1.90;;;;;;;;;;4999822;28;20571;-75
2022/06/21 12:53:53;;;;;;;4.87;1.80;;;;;;;;;;5005606;28;20273;-74
2022/06/21 12:56:37;;;;;;;5.67;1.73;;;;;;;;;;4985702;28;20236;-75
2022/06/21 12:59:21;;;;;;;9.63;1.90;;;;;;;;;;5006499;28;20212;-76
2022/06/21 13:01:51;;;;;;;4.53;1.60;;;;;;;;;;5001585;28;20711;-74
2022/06/21 13:04:29;;;;;;;5.13;1.93;;;;;;;;;;5005883;28;20292;-75
2022/06/21 13:07:03;;;;;;;3.67;1.90;;;;;;;;;;5003805;28;20295;-74
2022/06/21 13:09:38;;;;;;;5.00;1.70;;;;;;;;;;5007318;28;20296;-74
2022/06/21 13:12:12;;;;;;;4.33;1.90;;;;;;;;;;5006087;28;20621;-74
2022/06/21 13:15:05;;;;;;;3.77;1.90;;;;;;;;;;5007485;28;20227;-74
2022/06/21 13:17:55;;;;;;;3.63;1.90;;;;;;;;;;5006176;28;20288;-75
2022/06/21 13:20:26;;;;;;;4.73;1.90;;;;;;;;;;5008794;28;20212;-74
2022/06/21 13:22:59;;;;;;;3.20;1.80;;;;;;;;;;5007086;28;20200;-74
2022/06/21 13:25:34;;;;;;;4.33;1.77;;;;;;;;;;5006511;28;20239;-75
2022/06/21 13:28:07;;;;;;;6.70;2.23;;;;;;;;;;5009995;28;20215;-74
2022/06/21 13:30:42;;;;;;;3.50;1.70;;;;;;;;;;5009251;28;20862;-74
2022/06/21 13:33:11;;;;;;;3.83;1.57;;;;;;;;;;5001332;28;20213;-76
2022/06/21 13:35:45;;;;;;;2.57;1.50;;;;;;;;;;5005672;28;20287;-74
2022/06/21 13:38:16;;;;;;;8.00;1.87;;;;;;;;;;5006656;28;20219;-75
2022/06/21 13:40:46;;;;;;;3.87;1.80;;;;;;;;;;5007776;28;20213;-75
2022/06/21 13:43:16;;;;;;;6.07;2.20;;;;;;;;;;5002323;28;20579;-75
2022/06/21 13:45:50;;;;;;;4.13;2.10;;;;;;;;;;5003285;28;20296;-74
2022/06/21 13:48:21;;;;;;;7.40;1.90;;;;;;;;;;5005499;28;20201;-75
2022/06/21 13:50:51;;;;;;;4.67;1.70;;;;;;;;;;5000723;28;20234;-75
2022/06/21 13:53:22;;;;;;;8.43;1.90;;;;;;;;;;5003998;28;20221;-75
2022/06/21 13:55:53;;;;;;;3.73;1.70;;;;;;;;;;5002761;28;20282;-74
2022/06/21 13:58:32;;;;;;;4.00;1.90;;;;;;;;;;5006126;28;20204;-75
2022/06/21 14:01:05;;;;;;;3.90;1.80;;;;;;;;;;5003761;28;20252;-74
2022/06/21 14:03:37;;;;;;;5.93;1.80;;;;;;;;;;5003675;28;20313;-74
2022/06/21 14:06:10;;;;;;;2.97;1.73;;;;;;;;;;5004460;28;20201;-74
2022/06/21 14:08:40;;;;;;;4.80;1.63;;;;;;;;;;5001550;28;20686;-75
2022/06/21 14:11:14;;;;;;;4.87;1.90;;;;;;;;;;5002722;28;20290;-75
2022/06/21 14:13:45;;;;;;;4.77;1.73;;;;;;;;;;4998238;28;20227;-75
2022/06/21 14:16:18;;;;;;;3.63;1.70;;;;;;;;;;5001438;28;20213;-75
2022/06/21 14:18:50;;;;;;;7.00;1.70;;;;;;;;;;5002924;28;20249;-74
2022/06/21 14:21:24;;;;;;;3.63;1.60;;;;;;;;;;5000423;28;20228;-74
2022/06/21 14:23:53;;;;;;;4.73;1.60;;;;;;;;;;5002960;28;20193;-75
2022/06/21 14:26:23;;;;;;;5.53;2.10;;;;;;;;;;5006375;28;20218;-75
2022/06/21 14:28:52;;;;;;;4.97;1.90;;;;;;;;;;5002591;28;20235;-74
2022/06/21 14:31:25;;;;;;;4.90;1.70;;;;;;;;;;5007291;28;20316;-74
2022/06/21 14:33:56;;;;;;;5.37;1.87;;;;;;;;;;5006728;28;20320;-75
2022/06/21 14:36:27;;;;;;;3.70;1.90;;;;;;;;;;5005034;28;20675;-74
2022/06/21 14:38:58;;;;;;;5.27;1.97;;;;;;;;;;5006443;28;20205;-75
2022/06/21 14:41:30;;;;;;;4.40;1.80;;;;;;;;;;4998501;28;20920;-75
2022/06/21 14:44:00;;;;;;;7.00;2.00;;;;;;;;;;5001400;28;20589;-75
2022/06/21 14:46:32;;;;;;;5.20;1.90;;;;;;;;;;5001847;28;20728;-76
2022/06/21 14:49:02;;;;;;;5.93;1.70;;;;;;;;;;5006353;28;20208;-76
2022/06/21 14:51:34;;;;;;;4.23;1.73;;;;;;;;;;5001754;28;20638;-76
2022/06/21 14:54:14;;;;;;;3.77;1.83;;;;;;;;;;5004508;28;20235;-76
2022/06/21 14:56:53;;;;;;;5.33;2.20;;;;;;;;;;5002348;28;20552;-75
2022/06/21 14:59:29;;;;;;;3.33;1.80;;;;;;;;;;5003083;28;20633;-75
2022/06/21 15:02:01;;;;;;;3.27;1.87;;;;;;;;;;5001368;28;20383;-73
2022/06/21 15:04:33;;;;;;;5.80;2.10;;;;;;;;;;5003289;28;20675;-74
2022/06/21 15:07:09;;;;;;;3.30;1.87;;;;;;;;;;5001797;28;21279;-76
2022/06/21 15:09:43;;;;;;;4.50;1.80;;;;;;;;;;5001839;28;20215;-76
2022/06/21 15:12:12;;;;;;;4.73;2.03;;;;;;;;;;5009057;28;20248;-74
2022/06/21 15:14:41;;;;;;;4.07;2.07;;;;;;;;;;4992993;28;20309;-75
2022/06/21 15:17:14;;;;;;;9.30;2.13;;;;;;;;;;4998890;28;20203;-76
2022/06/21 15:19:56;;;;;;;7.90;2.13;;;;;;;;;;5004060;28;21731;-75
2022/06/21 15:22:39;;;;;;;3.87;1.90;;;;;;;;;;5005437;28;20224;-75
2022/06/21 15:25:12;;;;;;;4.90;2.00;;;;;;;;;;4998755;28;20208;-76